createdAt,value
2023-05-02T00:00:37.210Z,93.30
2023-05-02T00:01:37.212Z,92.74
2023-05-02T00:02:37.343Z,92.59
2023-05-02T00:03:37.271Z,92.63
2023-05-02T00:04:37.236Z,92.79
2023-05-02T00:05:37.180Z,93.45
2023-05-02T00:06:37.234Z,93.45
2023-05-02T00:07:37.179Z,93.55
2023-05-02T00:08:37.168Z,93.25
2023-05-02T00:09:37.200Z,92.63
2023-05-02T00:10:37.170Z,92.32
2023-05-02T00:11:37.170Z,92.22
2023-05-02T00:12:37.162Z,92.02
2023-05-02T00:13:37.161Z,92.02
2023-05-02T00:14:37.168Z,91.75
2023-05-02T00:15:37.156Z,92.43
2023-05-02T00:16:37.187Z,91.96
2023-05-02T00:17:37.187Z,91.44
2023-05-02T00:18:37.140Z,92.31
2023-05-02T00:19:37.147Z,92.41
2023-05-02T00:20:37.130Z,92.21
2023-05-02T00:21:37.141Z,92.51
2023-05-02T00:22:37.130Z,93.27
2023-05-02T00:23:37.126Z,93.89
2023-05-02T00:24:37.125Z,94.51
2023-05-02T00:25:37.136Z,95.43
2023-05-02T00:26:37.112Z,96.04
2023-05-02T00:27:37.111Z,96.04
2023-05-02T00:28:37.107Z,96.56
2023-05-02T00:29:37.103Z,96.97
2023-05-02T00:30:37.100Z,96.87
2023-05-02T00:31:37.203Z,96.77
2023-05-02T00:32:37.126Z,96.87
2023-05-02T00:33:37.095Z,97.17
2023-05-02T00:34:37.095Z,98.46
2023-05-02T00:35:37.088Z,98.05
2023-05-02T00:36:37.101Z,99.28
2023-05-02T00:37:37.076Z,99.38
2023-05-02T00:38:37.073Z,99.38
2023-05-02T00:39:37.072Z,99.54
2023-05-02T00:40:37.065Z,99.95
2023-05-02T00:41:37.085Z,99.99
2023-05-02T00:42:37.057Z,99.99
2023-05-02T00:43:37.077Z,99.99
2023-05-02T00:44:37.052Z,99.99
2023-05-02T00:45:37.049Z,99.99
2023-05-02T00:46:37.089Z,99.99
2023-05-02T00:47:37.083Z,99.91
2023-05-02T00:48:37.039Z,99.99
2023-05-02T00:49:37.039Z,99.99
2023-05-02T00:50:37.031Z,99.55
2023-05-02T00:51:37.028Z,99.80
2023-05-02T00:52:37.024Z,99.40
2023-05-02T00:53:37.036Z,99.29
2023-05-02T00:54:37.016Z,99.19
2023-05-02T00:55:37.013Z,99.29
2023-05-02T00:56:37.010Z,99.40
2023-05-02T00:57:37.238Z,99.09
2023-05-02T00:58:37.003Z,99.19
2023-05-02T00:59:37.051Z,99.29
2023-05-02T01:00:36.997Z,99.29
2023-05-02T01:01:37.091Z,99.19
2023-05-02T01:02:37.209Z,99.19
2023-05-02T01:03:37.052Z,99.29
2023-05-02T01:04:36.978Z,99.09
2023-05-02T01:05:36.982Z,99.09
2023-05-02T01:06:37.046Z,99.19
2023-05-02T01:07:36.985Z,99.29
2023-05-02T01:08:36.966Z,99.40
2023-05-02T01:09:36.972Z,99.50
2023-05-02T01:10:36.959Z,99.40
2023-05-02T01:11:36.957Z,99.19
2023-05-02T01:12:36.954Z,98.99
2023-05-02T01:13:36.967Z,99.19
2023-05-02T01:14:36.958Z,98.99
2023-05-02T01:15:36.941Z,99.29
2023-05-02T01:16:37.040Z,98.99
2023-05-02T01:17:36.998Z,99.19
2023-05-02T01:18:36.930Z,98.88
2023-05-02T01:19:36.926Z,98.78
2023-05-02T01:20:36.934Z,99.19
2023-05-02T01:21:36.917Z,99.09
2023-05-02T01:22:36.915Z,99.09
2023-05-02T01:23:36.919Z,99.29
2023-05-02T01:24:36.922Z,99.40
2023-05-02T01:25:36.927Z,99.40
2023-05-02T01:26:36.903Z,99.40
2023-05-02T01:27:36.915Z,99.09
2023-05-02T01:28:36.896Z,99.75
2023-05-02T01:29:36.933Z,99.60
2023-05-02T01:30:36.885Z,99.70
2023-05-02T01:31:36.959Z,99.80
2023-05-02T01:32:36.905Z,99.99
2023-05-02T01:33:36.880Z,99.99
2023-05-02T01:34:36.874Z,99.99
2023-05-02T01:35:36.874Z,99.99
2023-05-02T01:36:36.887Z,99.70
2023-05-02T01:37:36.863Z,99.76
2023-05-02T01:38:36.858Z,99.91
2023-05-02T01:39:36.858Z,99.99
2023-05-02T01:40:36.853Z,99.99
2023-05-02T01:41:36.859Z,99.99
2023-05-02T01:42:36.853Z,99.99
2023-05-02T01:43:36.851Z,99.99
2023-05-02T01:44:36.849Z,99.99
2023-05-02T01:45:36.858Z,99.96
2023-05-02T01:46:36.890Z,99.99
2023-05-02T01:47:36.853Z,99.99
2023-05-02T01:48:36.829Z,99.99
2023-05-02T01:49:36.829Z,99.99
2023-05-02T01:50:36.821Z,99.99
2023-05-02T01:51:36.818Z,99.99
2023-05-02T01:52:36.816Z,99.86
2023-05-02T01:53:36.814Z,99.99
2023-05-02T01:54:36.807Z,99.86
2023-05-02T01:55:36.808Z,99.76
2023-05-02T01:56:36.846Z,99.96
2023-05-02T01:57:36.810Z,99.99
2023-05-02T01:58:36.793Z,99.86
2023-05-02T01:59:36.792Z,99.99
2023-05-02T02:00:38.813Z,99.96
2023-05-02T02:01:36.900Z,99.66
2023-05-02T02:02:36.933Z,99.96
2023-05-02T02:03:36.855Z,99.86
2023-05-02T02:04:36.831Z,99.55
2023-05-02T02:05:36.771Z,99.86
2023-05-02T02:06:36.840Z,99.66
2023-05-02T02:07:36.764Z,99.99
2023-05-02T02:08:36.760Z,99.76
2023-05-02T02:09:36.754Z,99.66
2023-05-02T02:10:36.752Z,99.55
2023-05-02T02:11:36.752Z,99.86
2023-05-02T02:12:36.742Z,99.99
2023-05-02T02:13:36.754Z,99.99
2023-05-02T02:14:36.748Z,99.96
2023-05-02T02:15:36.732Z,99.99
2023-05-02T02:16:36.770Z,99.96
2023-05-02T02:17:36.771Z,99.86
2023-05-02T02:18:36.725Z,99.86
2023-05-02T02:19:36.719Z,99.99
2023-05-02T02:20:36.711Z,99.66
2023-05-02T02:21:36.709Z,99.96
2023-05-02T02:22:36.708Z,99.86
2023-05-02T02:23:36.703Z,99.66
2023-05-02T02:24:36.701Z,99.99
2023-05-02T02:25:36.694Z,99.99
2023-05-02T02:26:36.690Z,99.76
2023-05-02T02:27:36.695Z,99.66
2023-05-02T02:28:36.688Z,99.15
2023-05-02T02:29:36.681Z,99.04
2023-05-02T02:30:36.710Z,99.04
2023-05-02T02:31:36.710Z,99.15
2023-05-02T02:32:36.698Z,98.90
2023-05-02T02:33:36.687Z,99.10
2023-05-02T02:34:36.693Z,99.71
2023-05-02T02:35:36.666Z,99.61
2023-05-02T02:36:36.657Z,99.41
2023-05-02T02:37:36.650Z,99.71
2023-05-02T02:38:36.645Z,99.30
2023-05-02T02:39:36.645Z,99.10
2023-05-02T02:40:36.641Z,98.94
2023-05-02T02:41:36.637Z,98.79
2023-05-02T02:42:36.634Z,98.90
2023-05-02T02:43:36.637Z,98.79
2023-05-02T02:44:36.625Z,98.99
2023-05-02T02:45:36.734Z,98.79
2023-05-02T02:46:36.636Z,98.90
2023-05-02T02:47:36.737Z,98.79
2023-05-02T02:48:36.612Z,98.99
2023-05-02T02:49:36.630Z,98.49
2023-05-02T02:50:36.603Z,98.79
2023-05-02T02:51:36.601Z,98.79
2023-05-02T02:52:36.600Z,98.58
2023-05-02T02:53:36.594Z,98.79
2023-05-02T02:54:36.594Z,98.90
2023-05-02T02:55:36.587Z,98.79
2023-05-02T02:56:36.580Z,98.99
2023-05-02T02:57:36.581Z,98.99
2023-05-02T02:58:36.588Z,99.41
2023-05-02T02:59:36.569Z,99.10
2023-05-02T03:00:36.581Z,98.90
2023-05-02T03:01:36.623Z,99.10
2023-05-02T03:02:36.987Z,98.90
2023-05-02T03:03:36.643Z,98.90
2023-05-02T03:04:36.553Z,98.58
2023-05-02T03:05:36.683Z,98.90
2023-05-02T03:06:36.567Z,98.79
2023-05-02T03:07:36.546Z,98.79
2023-05-02T03:08:36.539Z,98.79
2023-05-02T03:09:36.539Z,99.10
2023-05-02T03:10:36.533Z,99.20
2023-05-02T03:11:36.532Z,98.58
2023-05-02T03:12:36.533Z,98.69
2023-05-02T03:13:36.523Z,99.30
2023-05-02T03:14:36.517Z,99.10
2023-05-02T03:15:36.522Z,99.10
2023-05-02T03:16:36.827Z,99.51
2023-05-02T03:17:36.528Z,99.30
2023-05-02T03:18:36.505Z,99.71
2023-05-02T03:19:36.504Z,99.71
2023-05-02T03:20:36.498Z,99.82
2023-05-02T03:21:36.513Z,99.71
2023-05-02T03:22:36.491Z,99.82
2023-05-02T03:23:36.490Z,99.30
2023-05-02T03:24:36.496Z,99.61
2023-05-02T03:25:36.483Z,99.30
2023-05-02T03:26:36.488Z,99.41
2023-05-02T03:27:36.480Z,98.90
2023-05-02T03:28:36.475Z,98.99
2023-05-02T03:29:36.477Z,98.79
2023-05-02T03:30:36.472Z,98.79
2023-05-02T03:31:36.526Z,98.99
2023-05-02T03:32:36.602Z,98.90
2023-05-02T03:33:36.456Z,98.85
2023-05-02T03:34:36.457Z,99.05
2023-05-02T03:35:36.462Z,99.26
2023-05-02T03:36:36.452Z,99.26
2023-05-02T03:37:36.582Z,99.36
2023-05-02T03:38:36.442Z,98.95
2023-05-02T03:39:36.450Z,99.36
2023-05-02T03:40:36.459Z,98.74
2023-05-02T03:41:36.429Z,98.74
2023-05-02T03:42:36.426Z,98.70
2023-05-02T03:43:36.424Z,98.85
2023-05-02T03:44:36.424Z,98.74
2023-05-02T03:45:36.416Z,98.54
2023-05-02T03:46:36.547Z,99.15
2023-05-02T03:47:36.497Z,98.95
2023-05-02T03:48:36.415Z,98.44
2023-05-02T03:49:36.400Z,99.15
2023-05-02T03:50:36.399Z,98.74
2023-05-02T03:51:36.402Z,99.15
2023-05-02T03:52:36.397Z,99.15
2023-05-02T03:53:36.407Z,98.54
2023-05-02T03:54:36.391Z,98.74
2023-05-02T03:55:36.381Z,98.70
2023-05-02T03:56:36.381Z,98.95
2023-05-02T03:57:36.384Z,97.72
2023-05-02T03:58:36.413Z,97.72
2023-05-02T03:59:36.383Z,97.97
2023-05-02T04:00:36.374Z,97.62
2023-05-02T04:01:36.440Z,97.62
2023-05-02T04:02:36.692Z,98.13
2023-05-02T04:03:36.532Z,98.13
2023-05-02T04:04:36.562Z,98.33
2023-05-02T04:05:36.351Z,98.03
2023-05-02T04:06:36.431Z,97.62
2023-05-02T04:07:36.368Z,97.92
2023-05-02T04:08:36.350Z,97.72
2023-05-02T04:09:36.365Z,97.82
2023-05-02T04:10:36.335Z,98.03
2023-05-02T04:11:36.345Z,97.31
2023-05-02T04:12:36.337Z,97.56
2023-05-02T04:13:36.330Z,97.31
2023-05-02T04:14:36.329Z,97.36
2023-05-02T04:15:36.330Z,97.52
2023-05-02T04:16:36.487Z,97.62
2023-05-02T04:17:36.358Z,97.56
2023-05-02T04:18:36.317Z,97.66
2023-05-02T04:19:36.311Z,97.36
2023-05-02T04:20:36.301Z,96.70
2023-05-02T04:21:36.296Z,96.54
2023-05-02T04:22:36.304Z,96.74
2023-05-02T04:23:36.292Z,97.05
2023-05-02T04:24:36.301Z,96.91
2023-05-02T04:25:36.310Z,97.62
2023-05-02T04:26:36.287Z,97.52
2023-05-02T04:27:36.279Z,97.41
2023-05-02T04:28:36.286Z,97.52
2023-05-02T04:29:36.269Z,97.62
2023-05-02T04:30:36.303Z,97.52
2023-05-02T04:31:36.345Z,97.72
2023-05-02T04:32:36.289Z,97.52
2023-05-02T04:33:36.257Z,97.41
2023-05-02T04:34:36.258Z,97.16
2023-05-02T04:35:36.257Z,97.06
2023-05-02T04:36:36.252Z,97.16
2023-05-02T04:37:36.241Z,97.67
2023-05-02T04:38:36.239Z,97.88
2023-05-02T04:39:36.239Z,97.47
2023-05-02T04:40:36.234Z,97.37
2023-05-02T04:41:36.256Z,97.57
2023-05-02T04:42:36.230Z,97.37
2023-05-02T04:43:36.237Z,97.47
2023-05-02T04:44:36.237Z,97.16
2023-05-02T04:45:36.217Z,96.66
2023-05-02T04:46:36.232Z,96.80
2023-05-02T04:47:36.264Z,96.29
2023-05-02T04:48:36.219Z,96.29
2023-05-02T04:49:36.200Z,96.39
2023-05-02T04:50:36.224Z,96.80
2023-05-02T04:51:36.204Z,96.70
2023-05-02T04:52:36.192Z,96.70
2023-05-02T04:53:36.189Z,97.21
2023-05-02T04:54:36.186Z,97.57
2023-05-02T04:55:36.191Z,97.62
2023-05-02T04:56:36.180Z,97.72
2023-05-02T04:57:36.203Z,97.41
2023-05-02T04:58:36.173Z,97.41
2023-05-02T04:59:36.175Z,97.72
2023-05-02T05:00:36.172Z,97.52
2023-05-02T05:01:36.256Z,97.41
2023-05-02T05:02:36.292Z,97.41
2023-05-02T05:03:36.277Z,97.62
2023-05-02T05:04:36.158Z,97.52
2023-05-02T05:05:36.240Z,97.11
2023-05-02T05:06:36.175Z,97.52
2023-05-02T05:07:36.147Z,97.41
2023-05-02T05:08:36.142Z,97.31
2023-05-02T05:09:36.136Z,97.92
2023-05-02T05:10:36.134Z,97.82
2023-05-02T05:11:36.144Z,97.72
2023-05-02T05:12:36.129Z,98.33
2023-05-02T05:13:36.142Z,98.65
2023-05-02T05:14:36.123Z,98.95
2023-05-02T05:15:36.126Z,98.74
2023-05-02T05:16:36.134Z,99.36
2023-05-02T05:17:36.139Z,99.05
2023-05-02T05:18:36.108Z,99.26
2023-05-02T05:19:36.112Z,99.26
2023-05-02T05:20:36.102Z,99.99
2023-05-02T05:21:36.102Z,99.87
2023-05-02T05:22:36.094Z,99.99
2023-05-02T05:23:36.103Z,99.82
2023-05-02T05:24:36.088Z,99.99
2023-05-02T05:25:36.089Z,99.61
2023-05-02T05:26:36.085Z,99.99
2023-05-02T05:27:36.082Z,99.99
2023-05-02T05:28:36.077Z,99.99
2023-05-02T05:29:36.093Z,99.99
2023-05-02T05:30:36.079Z,99.99
2023-05-02T05:31:36.139Z,99.99
2023-05-02T05:32:36.128Z,99.99
2023-05-02T05:33:36.080Z,99.99
2023-05-02T05:34:36.057Z,99.99
2023-05-02T05:35:36.051Z,99.99
2023-05-02T05:36:36.049Z,99.99
2023-05-02T05:37:36.047Z,99.99
2023-05-02T05:38:36.053Z,99.99
2023-05-02T05:39:36.037Z,99.99
2023-05-02T05:40:36.033Z,99.99
2023-05-02T05:41:36.030Z,99.99
2023-05-02T05:42:36.044Z,99.99
2023-05-02T05:43:38.020Z,99.99
2023-05-02T05:44:36.022Z,99.99
2023-05-02T05:45:36.039Z,99.99
2023-05-02T05:46:36.056Z,99.99
2023-05-02T05:47:36.098Z,99.99
2023-05-02T05:48:36.008Z,99.99
2023-05-02T05:49:38.412Z,99.99
2023-05-02T05:50:36.000Z,99.99
2023-05-02T05:51:35.998Z,99.99
2023-05-02T05:52:35.993Z,99.99
2023-05-02T05:53:36.001Z,99.99
2023-05-02T05:54:35.990Z,99.99
2023-05-02T05:55:37.507Z,99.99
2023-05-02T05:56:35.983Z,99.99
2023-05-02T05:57:35.980Z,99.99
2023-05-02T05:58:35.986Z,99.99
2023-05-02T05:59:35.995Z,99.99
2023-05-02T06:00:35.972Z,99.99
2023-05-02T06:01:36.033Z,99.99
2023-05-02T06:02:36.029Z,99.99
2023-05-02T06:03:36.209Z,99.99
2023-05-02T06:04:36.094Z,99.99
2023-05-02T06:05:35.958Z,99.99
2023-05-02T06:06:35.976Z,99.99
2023-05-02T06:07:36.103Z,99.99
2023-05-02T06:08:35.949Z,99.99
2023-05-02T06:09:35.962Z,99.99
2023-05-02T06:10:35.951Z,99.99
2023-05-02T06:11:35.936Z,99.99
2023-05-02T06:12:35.930Z,99.99
2023-05-02T06:13:35.928Z,99.99
2023-05-02T06:14:35.924Z,99.99
2023-05-02T06:15:35.932Z,99.99
2023-05-02T06:16:35.941Z,99.99
2023-05-02T06:17:35.978Z,99.99
2023-05-02T06:18:35.910Z,99.99
2023-05-02T06:19:35.907Z,99.99
2023-05-02T06:20:35.921Z,99.99
2023-05-02T06:21:35.904Z,99.99
2023-05-02T06:22:35.899Z,99.99
2023-05-02T06:23:36.776Z,99.99
2023-05-02T06:24:35.899Z,99.99
2023-05-02T06:25:35.893Z,99.99
2023-05-02T06:26:35.882Z,99.99
2023-05-02T06:27:35.890Z,99.99
2023-05-02T06:28:35.873Z,99.99
2023-05-02T06:29:35.875Z,99.99
2023-05-02T06:30:35.870Z,99.99
2023-05-02T06:31:35.920Z,99.99
2023-05-02T06:32:35.891Z,99.99
2023-05-02T06:33:35.875Z,99.99
2023-05-02T06:34:35.860Z,99.99
2023-05-02T06:35:35.846Z,99.99
2023-05-02T06:36:35.855Z,99.99
2023-05-02T06:37:35.841Z,99.99
2023-05-02T06:38:35.838Z,99.99
2023-05-02T06:39:35.829Z,99.99
2023-05-02T06:40:35.828Z,99.99
2023-05-02T06:41:35.832Z,99.99
2023-05-02T06:42:35.834Z,99.99
2023-05-02T06:43:35.821Z,99.99
2023-05-02T06:44:35.827Z,99.99
2023-05-02T06:45:35.806Z,99.99
2023-05-02T06:46:35.847Z,99.99
2023-05-02T06:47:35.822Z,99.99
2023-05-02T06:48:35.797Z,99.99
2023-05-02T06:49:35.812Z,99.99
2023-05-02T06:50:35.803Z,99.99
2023-05-02T06:51:35.801Z,99.99
2023-05-02T06:52:35.788Z,99.99
2023-05-02T06:53:35.777Z,99.99
2023-05-02T06:54:35.774Z,99.99
2023-05-02T06:55:35.770Z,99.99
2023-05-02T06:56:35.765Z,99.99
2023-05-02T06:57:35.759Z,99.99
2023-05-02T06:58:35.773Z,99.99
2023-05-02T06:59:35.756Z,99.99
2023-05-02T07:00:35.787Z,99.99
2023-05-02T07:01:35.904Z,99.99
2023-05-02T07:02:35.759Z,99.99
2023-05-02T07:03:35.738Z,99.99
2023-05-02T07:04:35.874Z,99.99
2023-05-02T07:05:35.749Z,99.99
2023-05-02T07:06:35.904Z,99.99
2023-05-02T07:07:35.730Z,99.96
2023-05-02T07:08:35.728Z,99.55
2023-05-02T07:09:35.720Z,98.88
2023-05-02T07:10:35.717Z,99.60
2023-05-02T07:11:35.739Z,99.25
2023-05-02T07:12:36.057Z,99.45
2023-05-02T07:13:35.703Z,99.99
2023-05-02T07:14:35.714Z,99.91
2023-05-02T07:15:35.702Z,99.45
2023-05-02T07:16:35.761Z,98.83
2023-05-02T07:17:35.754Z,98.74
2023-05-02T07:18:35.688Z,98.22
2023-05-02T07:19:35.675Z,97.91
2023-05-02T07:20:35.675Z,97.71
2023-05-02T07:21:35.692Z,97.81
2023-05-02T07:22:35.679Z,97.71
2023-05-02T07:23:35.662Z,98.83
2023-05-02T07:24:35.658Z,99.25
2023-05-02T07:25:35.656Z,99.04
2023-05-02T07:26:35.671Z,98.83
2023-05-02T07:27:35.651Z,98.83
2023-05-02T07:28:35.646Z,98.74
2023-05-02T07:29:35.642Z,98.63
2023-05-02T07:30:35.648Z,98.74
2023-05-02T07:31:35.668Z,98.53
2023-05-02T07:32:35.663Z,98.94
2023-05-02T07:33:35.635Z,98.83
2023-05-02T07:34:35.621Z,99.15
2023-05-02T07:35:35.614Z,98.83
2023-05-02T07:36:35.620Z,99.30
2023-05-02T07:37:35.628Z,99.51
2023-05-02T07:38:35.606Z,99.51
2023-05-02T07:39:35.603Z,99.20
2023-05-02T07:40:35.604Z,98.99
2023-05-02T07:41:35.619Z,99.51
2023-05-02T07:42:35.593Z,99.71
2023-05-02T07:43:35.599Z,99.51
2023-05-02T07:44:35.590Z,99.71
2023-05-02T07:45:35.583Z,99.20
2023-05-02T07:46:35.621Z,98.79
2023-05-02T07:47:35.621Z,99.41
2023-05-02T07:48:35.576Z,98.79
2023-05-02T07:49:35.581Z,98.90
2023-05-02T07:50:35.570Z,99.15
2023-05-02T07:51:35.581Z,98.79
2023-05-02T07:52:35.560Z,98.58
2023-05-02T07:53:35.671Z,98.85
2023-05-02T07:54:35.549Z,97.87
2023-05-02T07:55:35.564Z,97.77
2023-05-02T07:56:35.544Z,97.77
2023-05-02T07:57:35.541Z,96.89
2023-05-02T07:58:35.544Z,96.89
2023-05-02T07:59:35.538Z,96.38
2023-05-02T08:00:35.533Z,96.48
2023-05-02T08:01:35.526Z,96.89
2023-05-02T08:02:35.635Z,96.63
2023-05-02T08:03:35.667Z,96.58
2023-05-02T08:04:35.576Z,96.48
2023-05-02T08:05:35.516Z,96.32
2023-05-02T08:06:35.669Z,96.32
2023-05-02T08:07:37.032Z,95.50
2023-05-02T08:08:35.502Z,95.50
2023-05-02T08:09:35.522Z,95.81
2023-05-02T08:10:35.504Z,95.34
2023-05-02T08:11:35.497Z,95.40
2023-05-02T08:12:35.945Z,95.50
2023-05-02T08:13:35.484Z,95.44
2023-05-02T08:14:35.497Z,95.34
2023-05-02T08:15:35.478Z,94.21
2023-05-02T08:16:35.533Z,93.80
2023-05-02T08:18:35.465Z,94.01
2023-05-02T08:19:35.462Z,94.01
2023-05-02T08:20:35.455Z,94.01
2023-05-02T08:21:35.454Z,93.39
2023-05-02T08:22:35.450Z,92.36
2023-05-02T08:23:35.446Z,92.98
2023-05-02T08:24:35.446Z,93.49
2023-05-02T08:25:35.461Z,93.90
2023-05-02T08:26:35.436Z,93.39
2023-05-02T08:27:35.492Z,92.78
2023-05-02T08:28:35.431Z,93.80
2023-05-02T08:29:35.424Z,93.90
2023-05-02T08:30:35.439Z,93.80
2023-05-02T08:31:35.440Z,93.80
2023-05-02T08:32:35.426Z,92.68
2023-05-02T08:33:35.409Z,92.47
2023-05-02T08:34:35.407Z,93.60
2023-05-02T08:35:35.399Z,93.66
2023-05-02T08:36:35.392Z,93.49
2023-05-02T08:37:35.387Z,93.19
2023-05-02T08:38:35.385Z,94.01
2023-05-02T08:39:35.375Z,92.68
2023-05-02T08:40:42.089Z,93.70
2023-05-02T08:41:35.397Z,92.78
2023-05-02T08:42:35.377Z,92.57
2023-05-02T08:43:35.362Z,92.47
2023-05-02T08:44:35.372Z,91.65
2023-05-02T08:45:35.386Z,91.86
2023-05-02T08:46:35.375Z,92.16
2023-05-02T08:47:35.364Z,91.71
2023-05-02T08:48:35.353Z,92.36
2023-05-02T08:49:35.333Z,91.91
2023-05-02T08:50:35.330Z,92.83
2023-05-02T08:51:35.664Z,93.39
2023-05-02T08:52:35.319Z,93.66
2023-05-02T08:53:35.340Z,93.55
2023-05-02T08:54:35.312Z,93.45
2023-05-02T08:55:35.316Z,92.22
2023-05-02T08:56:35.302Z,92.53
2023-05-02T08:57:35.316Z,92.02
2023-05-02T08:58:35.301Z,90.89
2023-05-02T08:59:35.297Z,91.40
2023-05-02T09:00:35.291Z,90.83
2023-05-02T09:01:35.312Z,90.28
2023-05-02T09:02:35.286Z,90.63
2023-05-02T09:03:35.274Z,90.42
2023-05-02T09:04:35.352Z,90.58
2023-05-02T09:05:35.267Z,90.89
2023-05-02T09:06:35.270Z,90.58
2023-05-02T09:07:35.254Z,91.71
2023-05-02T09:08:35.255Z,92.02
2023-05-02T09:09:35.246Z,91.40
2023-05-02T09:10:35.244Z,91.61
2023-05-02T09:11:35.248Z,91.97
2023-05-02T09:12:35.385Z,91.77
2023-05-02T09:13:35.276Z,90.95
2023-05-02T09:14:35.224Z,91.36
2023-05-02T09:15:35.225Z,89.31
2023-05-02T09:16:35.234Z,90.03
2023-05-02T09:17:35.225Z,90.81
2023-05-02T09:18:35.372Z,88.49
2023-05-02T09:19:35.205Z,90.60
2023-05-02T09:20:35.204Z,90.39
2023-05-02T09:21:35.203Z,89.06
2023-05-02T09:22:35.194Z,88.62
2023-05-02T09:23:35.187Z,89.33
2023-05-02T09:24:35.193Z,88.56
2023-05-02T09:25:35.187Z,88.51
2023-05-02T09:28:35.170Z,90.41
2023-05-02T09:29:35.269Z,90.31
2023-05-02T09:30:35.160Z,90.15
2023-05-02T09:31:54.379Z,89.12
2023-05-02T09:32:35.189Z,88.45
2023-05-02T09:33:35.149Z,88.49
2023-05-02T09:35:35.144Z,89.51
2023-05-02T09:36:35.136Z,90.23
2023-05-02T09:37:35.160Z,90.75
2023-05-02T09:40:35.117Z,90.34
2023-05-02T09:41:35.117Z,90.64
2023-05-02T09:42:35.126Z,91.36
2023-05-02T09:43:35.114Z,91.36
2023-05-02T09:44:35.103Z,91.67
2023-05-02T09:45:35.120Z,91.46
2023-05-02T09:46:35.186Z,92.28
2023-05-02T09:47:35.134Z,92.08
2023-05-02T09:48:35.112Z,89.83
2023-05-02T09:49:36.304Z,90.54
2023-05-02T09:50:35.215Z,90.64
2023-05-02T09:51:35.074Z,89.21
2023-05-02T09:52:35.074Z,90.54
2023-05-02T09:53:35.268Z,90.84
2023-05-02T09:54:35.062Z,90.54
2023-05-02T09:55:35.060Z,89.47
2023-05-02T09:56:35.055Z,89.47
2023-05-02T09:57:35.052Z,88.49
2023-05-02T09:58:35.045Z,88.35
2023-05-02T09:59:35.052Z,88.45
2023-05-02T10:00:35.040Z,89.06
2023-05-02T10:01:35.102Z,88.04
2023-05-02T10:03:35.026Z,91.48
2023-05-02T10:04:35.219Z,90.56
2023-05-02T10:05:35.023Z,89.23
2023-05-02T10:06:35.041Z,89.09
2023-05-02T10:07:35.010Z,88.26
2023-05-02T10:08:35.028Z,88.98
2023-05-02T10:09:35.004Z,88.26
2023-05-02T10:10:34.995Z,87.96
2023-05-02T10:11:34.995Z,85.61
2023-05-02T10:12:34.991Z,87.41
2023-05-02T10:13:35.187Z,87.71
2023-05-02T10:14:34.982Z,86.59
2023-05-02T10:15:36.228Z,88.43
2023-05-02T10:16:35.164Z,86.49
2023-05-02T10:17:35.012Z,85.26
2023-05-02T10:18:34.976Z,84.69
2023-05-02T10:19:34.961Z,85.10
2023-05-02T10:20:34.966Z,85.50
2023-05-02T10:21:34.955Z,86.32
2023-05-02T10:22:34.963Z,87.04
2023-05-02T10:23:34.947Z,86.83
2023-05-02T10:24:34.943Z,87.04
2023-05-02T10:25:34.949Z,86.94
2023-05-02T10:26:34.938Z,85.40
2023-05-02T10:27:34.946Z,84.28
2023-05-02T10:28:34.930Z,85.55
2023-05-02T10:29:34.924Z,84.72
2023-05-02T10:30:34.924Z,84.22
2023-05-02T10:31:34.960Z,84.83
2023-05-02T10:32:34.995Z,83.39
2023-05-02T10:33:34.927Z,85.44
2023-05-02T10:34:34.914Z,83.70
2023-05-02T10:35:34.902Z,83.19
2023-05-02T10:36:34.896Z,83.87
2023-05-02T10:37:34.911Z,83.76
2023-05-02T10:38:34.899Z,83.46
2023-05-02T10:39:34.880Z,83.15
2023-05-02T10:40:34.890Z,84.03
2023-05-02T10:41:34.874Z,86.49
2023-05-02T10:42:34.873Z,85.42
2023-05-02T10:43:34.872Z,84.88
2023-05-02T10:45:35.059Z,81.85
2023-05-02T10:47:34.913Z,82.15
2023-05-02T10:48:34.899Z,82.05
2023-05-02T10:49:34.869Z,80.66
2023-05-02T10:50:34.840Z,82.40
2023-05-02T10:51:34.834Z,80.25
2023-05-02T10:52:34.832Z,82.20
2023-05-02T10:53:34.828Z,83.07
2023-05-02T10:57:34.829Z,83.79
2023-05-02T10:58:34.805Z,82.67
2023-05-02T11:02:34.905Z,84.71
2023-05-02T11:03:34.849Z,85.73
2023-05-02T11:04:34.791Z,83.18
2023-05-02T11:05:34.811Z,82.29
2023-05-02T11:06:34.890Z,83.62
2023-05-02T11:07:34.773Z,83.73
2023-05-02T11:08:34.777Z,81.88
2023-05-02T11:10:34.766Z,83.52
2023-05-02T11:11:34.763Z,82.50
2023-05-02T11:12:34.786Z,83.56
2023-05-02T11:13:34.757Z,83.56
2023-05-02T11:14:34.753Z,84.03
2023-05-02T11:15:34.765Z,80.87
2023-05-02T11:16:34.825Z,79.37
2023-05-02T11:17:34.805Z,80.08
2023-05-02T11:18:35.088Z,83.05
2023-05-02T11:19:34.734Z,82.03
2023-05-02T11:20:34.735Z,83.36
2023-05-02T11:21:34.785Z,83.25
2023-05-02T11:22:34.727Z,82.03
2023-05-02T11:23:34.719Z,84.17
2023-05-02T11:24:34.715Z,85.40
2023-05-02T11:25:34.715Z,82.84
2023-05-02T11:26:34.713Z,82.03
2023-05-02T11:27:34.712Z,82.13
2023-05-02T11:28:34.715Z,81.10
2023-05-02T11:29:34.699Z,80.80
2023-05-02T11:30:34.693Z,79.71
2023-05-02T11:31:34.715Z,80.02
2023-05-02T11:32:34.721Z,80.02
2023-05-02T11:33:34.720Z,80.53
2023-05-02T11:34:34.689Z,80.53
2023-05-02T11:35:34.689Z,79.91
2023-05-02T11:36:34.724Z,80.22
2023-05-02T11:37:34.685Z,80.53
2023-05-02T11:38:34.670Z,81.86
2023-05-02T11:39:34.665Z,81.01
2023-05-02T11:40:34.677Z,81.31
2023-05-02T11:41:34.652Z,80.49
2023-05-02T11:42:34.648Z,79.37
2023-05-02T11:43:34.646Z,79.78
2023-05-02T11:44:34.638Z,79.43
2023-05-02T11:45:34.638Z,82.09
2023-05-02T11:46:34.702Z,81.34
2023-05-02T11:47:34.668Z,80.01
2023-05-02T11:48:34.622Z,81.65
2023-05-02T11:49:34.621Z,80.21
2023-05-02T11:50:34.622Z,77.35
2023-05-02T11:51:34.626Z,75.24
2023-05-02T11:52:34.612Z,78.11
2023-05-02T11:53:34.642Z,80.66
2023-05-02T11:57:34.590Z,78.27
2023-05-02T11:58:34.689Z,78.61
2023-05-02T11:59:34.580Z,78.99
2023-05-02T12:00:34.591Z,80.62
2023-05-02T12:01:34.574Z,78.58
2023-05-02T12:02:34.622Z,78.78
2023-05-02T12:03:34.639Z,78.58
2023-05-02T12:04:34.568Z,78.68
2023-05-02T12:05:34.598Z,77.56
2023-05-02T12:06:34.573Z,77.86
2023-05-02T12:07:34.553Z,78.52
2023-05-02T12:08:34.549Z,77.04
2023-05-02T12:09:34.562Z,76.88
2023-05-02T12:10:34.550Z,78.82
2023-05-02T12:11:34.548Z,76.98
2023-05-02T12:12:34.530Z,79.29
2023-05-02T12:13:34.532Z,81.85
2023-05-02T12:14:34.529Z,78.99
2023-05-02T12:15:34.523Z,80.58
2023-05-02T12:16:34.636Z,78.03
2023-05-02T12:17:34.581Z,78.23
2023-05-02T12:18:34.711Z,78.64
2023-05-02T12:19:34.508Z,78.64
2023-05-02T12:20:34.517Z,77.83
2023-05-02T12:21:34.704Z,77.45
2023-05-02T12:22:34.499Z,76.23
2023-05-02T12:24:34.489Z,76.64
2023-05-02T12:25:35.308Z,76.94
2023-05-02T12:26:34.492Z,78.34
2023-05-02T12:27:34.477Z,75.82
2023-05-02T12:28:34.488Z,77.25
2023-05-02T12:30:34.471Z,75.51
2023-05-02T12:33:34.457Z,78.95
2023-05-02T12:34:34.459Z,78.34
2023-05-02T12:35:34.460Z,76.60
2023-05-02T12:38:37.020Z,74.87
2023-05-02T12:39:37.028Z,73.44
2023-05-02T12:40:37.017Z,76.70
2023-05-02T12:41:37.167Z,77.72
2023-05-02T12:42:37.017Z,76.19
2023-05-02T12:43:37.220Z,75.27
2023-05-02T12:45:24.567Z,76.70
2023-05-02T12:46:24.584Z,77.22
2023-05-02T12:47:24.963Z,77.52
2023-05-02T12:48:24.546Z,75.34
2023-05-02T12:49:24.543Z,76.29
2023-05-02T12:50:24.537Z,76.97
2023-05-02T12:51:24.540Z,75.44
2023-05-02T12:52:24.542Z,73.19
2023-05-02T12:53:24.526Z,73.19
2023-05-02T12:54:24.522Z,74.63
2023-05-02T12:55:24.567Z,75.37
2023-05-02T12:56:24.563Z,76.67
2023-05-02T12:57:24.532Z,72.82
2023-05-02T12:58:24.506Z,73.54
2023-05-02T12:59:24.504Z,74.52
2023-05-02T13:00:24.499Z,74.73
2023-05-02T13:01:24.522Z,74.76
2023-05-02T13:02:24.509Z,73.64
2023-05-02T13:03:24.636Z,74.76
2023-05-02T13:04:24.671Z,76.16
2023-05-02T13:05:24.484Z,74.05
2023-05-02T13:06:24.499Z,73.19
2023-05-02T13:07:24.483Z,74.42
2023-05-02T13:08:24.480Z,73.23
2023-05-02T13:09:24.466Z,73.44
2023-05-02T13:10:24.464Z,76.60
2023-05-02T13:11:24.474Z,77.01
2023-05-02T13:12:24.456Z,75.48
2023-05-02T13:13:24.493Z,73.71
2023-05-02T13:14:24.458Z,74.52
2023-05-02T13:15:24.527Z,72.92
2023-05-02T13:16:24.733Z,72.92
2023-05-02T13:19:32.629Z,73.94
2023-05-02T13:20:32.034Z,73.74